sensor_id;sensor_type;location;lat;lon;timestamp;P1;durP1;ratioP1;P2;durP2;ratioP2
22435;SDS011;11385;50.822;4.324;2023-02-28T00:03:52;10.88;;;4.58;;
22435;SDS011;11385;50.822;4.324;2023-02-28T00:06:20;8.85;;;4.80;;
22435;SDS011;11385;50.822;4.324;2023-02-28T00:08:48;8.13;;;5.00;;
22435;SDS011;11385;50.822;4.324;2023-02-28T00:11:15;8.63;;;4.50;;
22435;SDS011;11385;50.822;4.324;2023-02-28T00:13:43;9.10;;;5.03;;
22435;SDS011;11385;50.822;4.324;2023-02-28T00:16:14;6.80;;;4.60;;
22435;SDS011;11385;50.822;4.324;2023-02-28T00:18:43;9.03;;;5.10;;
22435;SDS011;11385;50.822;4.324;2023-02-28T00:21:10;10.82;;;5.65;;
22435;SDS011;11385;50.822;4.324;2023-02-28T00:23:37;10.25;;;6.50;;
22435;SDS011;11385;50.822;4.324;2023-02-28T00:26:04;11.35;;;6.70;;
22435;SDS011;11385;50.822;4.324;2023-02-28T00:28:31;9.90;;;7.12;;
22435;SDS011;11385;50.822;4.324;2023-02-28T00:30:57;11.15;;;7.20;;
22435;SDS011;11385;50.822;4.324;2023-02-28T00:33:26;9.13;;;6.37;;
22435;SDS011;11385;50.822;4.324;2023-02-28T00:36:00;13.03;;;6.97;;
22435;SDS011;11385;50.822;4.324;2023-02-28T00:38:29;9.10;;;5.55;;
22435;SDS011;11385;50.822;4.324;2023-02-28T00:40:56;8.63;;;5.03;;
22435;SDS011;11385;50.822;4.324;2023-02-28T00:43:24;7.90;;;4.97;;
22435;SDS011;11385;50.822;4.324;2023-02-28T00:45:50;12.93;;;5.35;;
22435;SDS011;11385;50.822;4.324;2023-02-28T00:48:17;9.10;;;5.03;;
22435;SDS011;11385;50.822;4.324;2023-02-28T00:50:44;11.60;;;5.55;;
22435;SDS011;11385;50.822;4.324;2023-02-28T00:53:12;11.70;;;5.17;;
22435;SDS011;11385;50.822;4.324;2023-02-28T00:55:39;7.72;;;5.35;;
22435;SDS011;11385;50.822;4.324;2023-02-28T00:58:06;8.35;;;5.30;;
22435;SDS011;11385;50.822;4.324;2023-02-28T01:00:32;11.68;;;5.95;;
22435;SDS011;11385;50.822;4.324;2023-02-28T01:02:59;8.75;;;5.80;;
22435;SDS011;11385;50.822;4.324;2023-02-28T01:05:25;8.88;;;5.83;;
22435;SDS011;11385;50.822;4.324;2023-02-28T01:07:52;7.03;;;4.78;;
22435;SDS011;11385;50.822;4.324;2023-02-28T01:10:19;8.83;;;5.30;;
22435;SDS011;11385;50.822;4.324;2023-02-28T01:12:46;9.75;;;4.72;;
22435;SDS011;11385;50.822;4.324;2023-02-28T01:15:13;12.73;;;5.53;;
22435;SDS011;11385;50.822;4.324;2023-02-28T01:17:39;8.13;;;5.42;;
22435;SDS011;11385;50.822;4.324;2023-02-28T01:20:06;9.40;;;5.45;;
22435;SDS011;11385;50.822;4.324;2023-02-28T01:22:34;8.63;;;5.15;;
22435;SDS011;11385;50.822;4.324;2023-02-28T01:25:01;13.10;;;5.72;;
22435;SDS011;11385;50.822;4.324;2023-02-28T01:27:27;12.05;;;5.53;;
22435;SDS011;11385;50.822;4.324;2023-02-28T01:29:54;12.07;;;5.53;;
22435;SDS011;11385;50.822;4.324;2023-02-28T01:32:21;8.75;;;5.17;;
22435;SDS011;11385;50.822;4.324;2023-02-28T01:34:47;10.60;;;5.20;;
22435;SDS011;11385;50.822;4.324;2023-02-28T01:37:14;9.58;;;5.55;;
22435;SDS011;11385;50.822;4.324;2023-02-28T01:39:41;11.35;;;5.67;;
22435;SDS011;11385;50.822;4.324;2023-02-28T01:42:08;9.33;;;4.97;;
22435;SDS011;11385;50.822;4.324;2023-02-28T01:47:14;9.38;;;5.65;;
22435;SDS011;11385;50.822;4.324;2023-02-28T01:49:41;11.80;;;5.87;;
22435;SDS011;11385;50.822;4.324;2023-02-28T01:52:08;8.68;;;5.30;;
22435;SDS011;11385;50.822;4.324;2023-02-28T01:54:42;8.33;;;5.55;;
22435;SDS011;11385;50.822;4.324;2023-02-28T01:57:12;8.70;;;5.50;;
22435;SDS011;11385;50.822;4.324;2023-02-28T01:59:42;8.30;;;5.67;;
22435;SDS011;11385;50.822;4.324;2023-02-28T02:02:12;11.35;;;5.30;;
22435;SDS011;11385;50.822;4.324;2023-02-28T02:04:41;9.78;;;6.22;;
22435;SDS011;11385;50.822;4.324;2023-02-28T02:07:14;10.50;;;6.08;;
22435;SDS011;11385;50.822;4.324;2023-02-28T02:09:42;8.95;;;5.62;;
22435;SDS011;11385;50.822;4.324;2023-02-28T02:12:16;11.68;;;6.08;;
22435;SDS011;11385;50.822;4.324;2023-02-28T02:14:48;11.73;;;6.15;;
22435;SDS011;11385;50.822;4.324;2023-02-28T02:19:59;10.30;;;6.58;;
22435;SDS011;11385;50.822;4.324;2023-02-28T02:22:37;8.98;;;5.95;;
22435;SDS011;11385;50.822;4.324;2023-02-28T02:25:11;10.85;;;6.05;;
22435;SDS011;11385;50.822;4.324;2023-02-28T02:30:42;10.38;;;6.05;;
22435;SDS011;11385;50.822;4.324;2023-02-28T02:33:33;11.60;;;6.70;;
22435;SDS011;11385;50.822;4.324;2023-02-28T02:36:07;11.93;;;6.42;;
22435;SDS011;11385;50.822;4.324;2023-02-28T02:38:46;9.73;;;6.55;;
22435;SDS011;11385;50.822;4.324;2023-02-28T02:41:15;10.98;;;6.65;;
22435;SDS011;11385;50.822;4.324;2023-02-28T02:43:49;10.35;;;6.60;;
22435;SDS011;11385;50.822;4.324;2023-02-28T02:46:21;11.95;;;7.03;;
22435;SDS011;11385;50.822;4.324;2023-02-28T02:48:52;9.53;;;6.40;;
22435;SDS011;11385;50.822;4.324;2023-02-28T02:51:23;11.05;;;6.70;;
22435;SDS011;11385;50.822;4.324;2023-02-28T02:54:00;10.40;;;6.58;;
22435;SDS011;11385;50.822;4.324;2023-02-28T02:56:35;11.25;;;7.22;;
22435;SDS011;11385;50.822;4.324;2023-02-28T02:59:04;11.48;;;6.90;;
22435;SDS011;11385;50.822;4.324;2023-02-28T03:01:34;9.13;;;6.33;;
22435;SDS011;11385;50.822;4.324;2023-02-28T03:04:05;10.13;;;6.65;;
22435;SDS011;11385;50.822;4.324;2023-02-28T03:06:37;12.47;;;7.15;;
22435;SDS011;11385;50.822;4.324;2023-02-28T03:09:04;10.90;;;7.35;;
22435;SDS011;11385;50.822;4.324;2023-02-28T03:11:31;12.35;;;6.95;;
22435;SDS011;11385;50.822;4.324;2023-02-28T03:16:59;10.18;;;7.05;;
22435;SDS011;11385;50.822;4.324;2023-02-28T03:19:34;11.88;;;7.45;;
22435;SDS011;11385;50.822;4.324;2023-02-28T03:22:19;10.00;;;6.42;;
22435;SDS011;11385;50.822;4.324;2023-02-28T03:24:52;11.18;;;6.87;;
22435;SDS011;11385;50.822;4.324;2023-02-28T03:27:26;12.50;;;8.18;;
22435;SDS011;11385;50.822;4.324;2023-02-28T03:30:03;12.65;;;7.67;;
22435;SDS011;11385;50.822;4.324;2023-02-28T03:32:33;9.80;;;7.20;;
22435;SDS011;11385;50.822;4.324;2023-02-28T03:35:09;12.45;;;7.72;;
22435;SDS011;11385;50.822;4.324;2023-02-28T03:37:55;12.15;;;7.70;;
22435;SDS011;11385;50.822;4.324;2023-02-28T03:40:25;12.82;;;7.75;;
22435;SDS011;11385;50.822;4.324;2023-02-28T03:42:57;13.60;;;7.60;;
22435;SDS011;11385;50.822;4.324;2023-02-28T03:45:26;14.45;;;7.80;;
22435;SDS011;11385;50.822;4.324;2023-02-28T03:48:01;11.93;;;7.25;;
22435;SDS011;11385;50.822;4.324;2023-02-28T03:50:38;10.95;;;8.45;;
22435;SDS011;11385;50.822;4.324;2023-02-28T03:53:09;13.48;;;7.70;;
22435;SDS011;11385;50.822;4.324;2023-02-28T03:55:42;14.25;;;7.50;;
22435;SDS011;11385;50.822;4.324;2023-02-28T03:58:15;13.78;;;7.50;;
22435;SDS011;11385;50.822;4.324;2023-02-28T04:00:45;13.60;;;8.50;;
22435;SDS011;11385;50.822;4.324;2023-02-28T04:03:14;12.40;;;7.97;;
22435;SDS011;11385;50.822;4.324;2023-02-28T04:05:50;13.15;;;8.45;;
22435;SDS011;11385;50.822;4.324;2023-02-28T04:08:18;15.20;;;8.43;;
22435;SDS011;11385;50.822;4.324;2023-02-28T04:10:47;15.18;;;8.15;;
22435;SDS011;11385;50.822;4.324;2023-02-28T04:13:16;14.40;;;8.90;;
22435;SDS011;11385;50.822;4.324;2023-02-28T04:15:43;11.73;;;7.78;;
22435;SDS011;11385;50.822;4.324;2023-02-28T04:18:09;15.78;;;7.80;;
22435;SDS011;11385;50.822;4.324;2023-02-28T04:20:36;14.23;;;8.85;;
22435;SDS011;11385;50.822;4.324;2023-02-28T04:23:02;13.43;;;8.35;;
22435;SDS011;11385;50.822;4.324;2023-02-28T04:25:29;11.78;;;9.08;;
22435;SDS011;11385;50.822;4.324;2023-02-28T04:27:56;12.98;;;8.65;;
22435;SDS011;11385;50.822;4.324;2023-02-28T04:30:22;15.90;;;8.95;;
22435;SDS011;11385;50.822;4.324;2023-02-28T04:32:49;16.90;;;9.35;;
22435;SDS011;11385;50.822;4.324;2023-02-28T04:35:15;12.15;;;8.90;;
22435;SDS011;11385;50.822;4.324;2023-02-28T04:37:42;12.37;;;8.78;;
22435;SDS011;11385;50.822;4.324;2023-02-28T04:40:09;12.20;;;8.28;;
22435;SDS011;11385;50.822;4.324;2023-02-28T04:42:36;14.15;;;9.18;;
22435;SDS011;11385;50.822;4.324;2023-02-28T04:45:03;13.40;;;9.38;;
22435;SDS011;11385;50.822;4.324;2023-02-28T04:47:31;15.13;;;9.13;;
22435;SDS011;11385;50.822;4.324;2023-02-28T04:49:57;15.28;;;9.38;;
22435;SDS011;11385;50.822;4.324;2023-02-28T04:52:24;17.60;;;9.83;;
22435;SDS011;11385;50.822;4.324;2023-02-28T04:54:50;14.78;;;9.85;;
22435;SDS011;11385;50.822;4.324;2023-02-28T04:57:17;13.50;;;8.95;;
22435;SDS011;11385;50.822;4.324;2023-02-28T04:59:44;18.77;;;9.30;;
22435;SDS011;11385;50.822;4.324;2023-02-28T05:02:10;17.65;;;10.15;;
22435;SDS011;11385;50.822;4.324;2023-02-28T05:04:37;17.67;;;9.30;;
22435;SDS011;11385;50.822;4.324;2023-02-28T05:07:03;12.95;;;9.28;;
22435;SDS011;11385;50.822;4.324;2023-02-28T05:09:30;14.98;;;9.78;;
22435;SDS011;11385;50.822;4.324;2023-02-28T05:11:58;13.50;;;9.15;;
22435;SDS011;11385;50.822;4.324;2023-02-28T05:14:25;16.82;;;9.38;;
22435;SDS011;11385;50.822;4.324;2023-02-28T05:16:53;14.00;;;9.00;;
22435;SDS011;11385;50.822;4.324;2023-02-28T05:19:19;18.77;;;9.83;;
22435;SDS011;11385;50.822;4.324;2023-02-28T05:21:50;11.53;;;9.28;;
22435;SDS011;11385;50.822;4.324;2023-02-28T05:24:18;16.07;;;9.43;;
22435;SDS011;11385;50.822;4.324;2023-02-28T05:26:47;13.80;;;8.73;;
22435;SDS011;11385;50.822;4.324;2023-02-28T05:29:15;14.10;;;9.15;;
22435;SDS011;11385;50.822;4.324;2023-02-28T05:31:42;13.83;;;8.88;;
22435;SDS011;11385;50.822;4.324;2023-02-28T05:34:08;13.15;;;8.93;;
22435;SDS011;11385;50.822;4.324;2023-02-28T05:36:37;14.28;;;9.08;;
22435;SDS011;11385;50.822;4.324;2023-02-28T05:39:05;13.28;;;9.05;;
22435;SDS011;11385;50.822;4.324;2023-02-28T05:41:34;14.18;;;9.18;;
22435;SDS011;11385;50.822;4.324;2023-02-28T05:44:01;14.50;;;8.70;;
22435;SDS011;11385;50.822;4.324;2023-02-28T05:46:28;13.15;;;9.30;;
22435;SDS011;11385;50.822;4.324;2023-02-28T05:48:55;12.88;;;8.38;;
22435;SDS011;11385;50.822;4.324;2023-02-28T05:51:23;14.87;;;8.30;;
22435;SDS011;11385;50.822;4.324;2023-02-28T05:53:50;13.80;;;9.20;;
22435;SDS011;11385;50.822;4.324;2023-02-28T05:56:16;12.23;;;8.30;;
22435;SDS011;11385;50.822;4.324;2023-02-28T05:58:43;17.75;;;9.55;;
22435;SDS011;11385;50.822;4.324;2023-02-28T06:03:48;12.95;;;9.10;;
22435;SDS011;11385;50.822;4.324;2023-02-28T06:06:15;15.98;;;8.70;;
22435;SDS011;11385;50.822;4.324;2023-02-28T06:08:41;15.23;;;8.60;;
22435;SDS011;11385;50.822;4.324;2023-02-28T06:11:10;16.80;;;8.88;;
22435;SDS011;11385;50.822;4.324;2023-02-28T06:13:36;13.80;;;8.78;;
22435;SDS011;11385;50.822;4.324;2023-02-28T06:16:03;16.02;;;8.33;;
22435;SDS011;11385;50.822;4.324;2023-02-28T06:18:30;15.48;;;8.55;;
22435;SDS011;11385;50.822;4.324;2023-02-28T06:20:56;18.98;;;10.03;;
22435;SDS011;11385;50.822;4.324;2023-02-28T06:23:23;15.58;;;7.97;;
22435;SDS011;11385;50.822;4.324;2023-02-28T06:25:50;14.38;;;8.08;;
22435;SDS011;11385;50.822;4.324;2023-02-28T06:28:18;13.98;;;8.43;;
22435;SDS011;11385;50.822;4.324;2023-02-28T06:30:45;13.22;;;8.88;;
22435;SDS011;11385;50.822;4.324;2023-02-28T06:33:12;13.85;;;9.33;;
22435;SDS011;11385;50.822;4.324;2023-02-28T06:35:39;13.62;;;9.25;;
22435;SDS011;11385;50.822;4.324;2023-02-28T06:38:05;18.45;;;8.75;;
22435;SDS011;11385;50.822;4.324;2023-02-28T06:40:32;13.25;;;7.95;;
22435;SDS011;11385;50.822;4.324;2023-02-28T06:43:01;18.87;;;8.68;;
22435;SDS011;11385;50.822;4.324;2023-02-28T06:45:28;13.98;;;8.40;;
22435;SDS011;11385;50.822;4.324;2023-02-28T06:47:55;15.90;;;8.45;;
22435;SDS011;11385;50.822;4.324;2023-02-28T06:50:21;12.45;;;7.30;;
22435;SDS011;11385;50.822;4.324;2023-02-28T06:52:48;16.45;;;8.55;;
22435;SDS011;11385;50.822;4.324;2023-02-28T06:55:17;11.28;;;7.90;;
22435;SDS011;11385;50.822;4.324;2023-02-28T06:57:44;14.13;;;8.70;;
22435;SDS011;11385;50.822;4.324;2023-02-28T07:00:11;11.00;;;7.58;;
22435;SDS011;11385;50.822;4.324;2023-02-28T07:02:39;12.07;;;7.85;;
22435;SDS011;11385;50.822;4.324;2023-02-28T07:05:06;15.78;;;8.53;;
22435;SDS011;11385;50.822;4.324;2023-02-28T07:07:33;14.58;;;8.03;;
22435;SDS011;11385;50.822;4.324;2023-02-28T07:10:02;11.63;;;8.10;;
22435;SDS011;11385;50.822;4.324;2023-02-28T07:12:28;15.18;;;9.10;;
22435;SDS011;11385;50.822;4.324;2023-02-28T07:14:55;16.65;;;8.00;;
22435;SDS011;11385;50.822;4.324;2023-02-28T07:17:22;14.10;;;8.83;;
22435;SDS011;11385;50.822;4.324;2023-02-28T07:19:49;14.40;;;8.55;;
22435;SDS011;11385;50.822;4.324;2023-02-28T07:22:15;23.50;;;12.88;;
22435;SDS011;11385;50.822;4.324;2023-02-28T07:24:42;22.25;;;12.60;;
22435;SDS011;11385;50.822;4.324;2023-02-28T07:27:09;19.35;;;12.93;;
22435;SDS011;11385;50.822;4.324;2023-02-28T07:29:35;23.75;;;11.03;;
22435;SDS011;11385;50.822;4.324;2023-02-28T07:32:02;20.97;;;11.15;;
22435;SDS011;11385;50.822;4.324;2023-02-28T07:34:29;14.20;;;9.78;;
22435;SDS011;11385;50.822;4.324;2023-02-28T07:36:56;18.85;;;11.85;;
22435;SDS011;11385;50.822;4.324;2023-02-28T07:39:22;14.15;;;9.70;;
22435;SDS011;11385;50.822;4.324;2023-02-28T07:41:49;15.18;;;7.92;;
22435;SDS011;11385;50.822;4.324;2023-02-28T07:44:16;15.90;;;9.35;;
22435;SDS011;11385;50.822;4.324;2023-02-28T07:46:42;14.55;;;8.85;;
22435;SDS011;11385;50.822;4.324;2023-02-28T07:49:09;19.20;;;10.13;;
22435;SDS011;11385;50.822;4.324;2023-02-28T07:51:35;13.80;;;7.33;;
22435;SDS011;11385;50.822;4.324;2023-02-28T07:54:02;12.50;;;6.70;;
22435;SDS011;11385;50.822;4.324;2023-02-28T07:56:29;14.55;;;6.65;;
22435;SDS011;11385;50.822;4.324;2023-02-28T07:58:56;12.15;;;6.10;;
22435;SDS011;11385;50.822;4.324;2023-02-28T08:01:22;10.60;;;6.17;;
22435;SDS011;11385;50.822;4.324;2023-02-28T08:03:49;12.15;;;5.70;;
22435;SDS011;11385;50.822;4.324;2023-02-28T08:06:17;11.35;;;6.80;;
22435;SDS011;11385;50.822;4.324;2023-02-28T08:08:47;11.10;;;5.75;;
22435;SDS011;11385;50.822;4.324;2023-02-28T08:11:14;9.80;;;5.72;;
22435;SDS011;11385;50.822;4.324;2023-02-28T08:13:41;12.10;;;7.28;;
22435;SDS011;11385;50.822;4.324;2023-02-28T08:16:09;14.05;;;5.58;;
22435;SDS011;11385;50.822;4.324;2023-02-28T08:18:40;7.08;;;3.95;;
22435;SDS011;11385;50.822;4.324;2023-02-28T08:21:09;9.60;;;4.97;;
22435;SDS011;11385;50.822;4.324;2023-02-28T08:23:36;9.13;;;4.40;;
22435;SDS011;11385;50.822;4.324;2023-02-28T08:26:04;7.25;;;3.90;;
22435;SDS011;11385;50.822;4.324;2023-02-28T08:28:30;6.90;;;4.15;;
22435;SDS011;11385;50.822;4.324;2023-02-28T08:30:57;7.90;;;4.35;;
22435;SDS011;11385;50.822;4.324;2023-02-28T08:33:24;11.38;;;4.28;;
22435;SDS011;11385;50.822;4.324;2023-02-28T08:35:53;5.75;;;3.83;;
22435;SDS011;11385;50.822;4.324;2023-02-28T08:38:21;7.60;;;3.47;;
22435;SDS011;11385;50.822;4.324;2023-02-28T08:40:53;5.08;;;3.70;;
22435;SDS011;11385;50.822;4.324;2023-02-28T08:43:24;8.83;;;3.50;;
22435;SDS011;11385;50.822;4.324;2023-02-28T08:45:51;6.75;;;3.85;;
22435;SDS011;11385;50.822;4.324;2023-02-28T08:48:19;13.48;;;3.92;;
22435;SDS011;11385;50.822;4.324;2023-02-28T08:53:24;7.03;;;3.52;;
22435;SDS011;11385;50.822;4.324;2023-02-28T08:55:57;6.50;;;3.87;;
22435;SDS011;11385;50.822;4.324;2023-02-28T08:58:25;8.25;;;3.95;;
22435;SDS011;11385;50.822;4.324;2023-02-28T09:00:53;12.88;;;4.00;;
22435;SDS011;11385;50.822;4.324;2023-02-28T09:03:21;8.40;;;5.28;;
22435;SDS011;11385;50.822;4.324;2023-02-28T09:05:51;8.30;;;4.67;;
22435;SDS011;11385;50.822;4.324;2023-02-28T09:08:20;7.55;;;4.50;;
22435;SDS011;11385;50.822;4.324;2023-02-28T09:10:47;7.30;;;3.98;;
22435;SDS011;11385;50.822;4.324;2023-02-28T09:13:15;8.45;;;3.80;;
22435;SDS011;11385;50.822;4.324;2023-02-28T09:15:41;12.03;;;4.15;;
22435;SDS011;11385;50.822;4.324;2023-02-28T09:18:08;8.58;;;4.15;;
22435;SDS011;11385;50.822;4.324;2023-02-28T09:20:37;7.97;;;4.45;;
22435;SDS011;11385;50.822;4.324;2023-02-28T09:23:05;9.38;;;4.72;;
22435;SDS011;11385;50.822;4.324;2023-02-28T09:25:33;12.90;;;4.20;;
22435;SDS011;11385;50.822;4.324;2023-02-28T09:28:00;8.30;;;3.90;;
22435;SDS011;11385;50.822;4.324;2023-02-28T09:30:27;7.75;;;4.00;;
22435;SDS011;11385;50.822;4.324;2023-02-28T09:32:55;6.30;;;3.80;;
22435;SDS011;11385;50.822;4.324;2023-02-28T09:35:22;8.33;;;4.30;;
22435;SDS011;11385;50.822;4.324;2023-02-28T09:37:52;8.68;;;3.80;;
22435;SDS011;11385;50.822;4.324;2023-02-28T09:40:19;6.45;;;3.77;;
22435;SDS011;11385;50.822;4.324;2023-02-28T09:42:49;10.82;;;3.75;;
22435;SDS011;11385;50.822;4.324;2023-02-28T09:45:24;9.00;;;3.98;;
22435;SDS011;11385;50.822;4.324;2023-02-28T09:47:58;7.05;;;3.50;;
22435;SDS011;11385;50.822;4.324;2023-02-28T09:50:40;6.33;;;3.15;;
22435;SDS011;11385;50.822;4.324;2023-02-28T09:53:45;5.15;;;3.00;;
22435;SDS011;11385;50.822;4.324;2023-02-28T09:56:14;4.95;;;2.60;;
22435;SDS011;11385;50.822;4.324;2023-02-28T09:58:56;7.15;;;2.98;;
22435;SDS011;11385;50.822;4.324;2023-02-28T10:07:17;6.55;;;3.22;;
22435;SDS011;11385;50.822;4.324;2023-02-28T10:09:47;5.25;;;2.80;;
22435;SDS011;11385;50.822;4.324;2023-02-28T10:12:17;6.40;;;2.58;;
22435;SDS011;11385;50.822;4.324;2023-02-28T10:14:46;6.45;;;2.45;;
22435;SDS011;11385;50.822;4.324;2023-02-28T10:17:18;4.67;;;2.70;;
22435;SDS011;11385;50.822;4.324;2023-02-28T10:19:52;6.58;;;2.75;;
22435;SDS011;11385;50.822;4.324;2023-02-28T10:22:21;8.85;;;2.55;;
22435;SDS011;11385;50.822;4.324;2023-02-28T10:24:53;8.53;;;2.33;;
22435;SDS011;11385;50.822;4.324;2023-02-28T10:27:26;8.03;;;2.75;;
22435;SDS011;11385;50.822;4.324;2023-02-28T10:29:58;5.65;;;2.67;;
22435;SDS011;11385;50.822;4.324;2023-02-28T10:32:27;6.28;;;2.90;;
22435;SDS011;11385;50.822;4.324;2023-02-28T10:34:57;4.62;;;2.45;;
22435;SDS011;11385;50.822;4.324;2023-02-28T10:37:27;4.70;;;2.57;;
22435;SDS011;11385;50.822;4.324;2023-02-28T10:39:54;9.20;;;4.47;;
22435;SDS011;11385;50.822;4.324;2023-02-28T10:42:24;5.25;;;2.27;;
22435;SDS011;11385;50.822;4.324;2023-02-28T10:47:31;7.12;;;2.98;;
22435;SDS011;11385;50.822;4.324;2023-02-28T10:50:02;3.70;;;2.00;;
22435;SDS011;11385;50.822;4.324;2023-02-28T10:52:33;4.22;;;2.10;;
22435;SDS011;11385;50.822;4.324;2023-02-28T10:57:40;7.85;;;3.85;;
22435;SDS011;11385;50.822;4.324;2023-02-28T11:00:15;5.47;;;2.77;;
22435;SDS011;11385;50.822;4.324;2023-02-28T11:02:47;4.90;;;2.30;;
22435;SDS011;11385;50.822;4.324;2023-02-28T11:05:24;5.20;;;2.30;;
22435;SDS011;11385;50.822;4.324;2023-02-28T11:08:10;5.12;;;2.20;;
22435;SDS011;11385;50.822;4.324;2023-02-28T11:10:44;4.15;;;2.40;;
22435;SDS011;11385;50.822;4.324;2023-02-28T11:13:17;4.00;;;2.20;;
22435;SDS011;11385;50.822;4.324;2023-02-28T11:15:51;4.85;;;2.58;;
22435;SDS011;11385;50.822;4.324;2023-02-28T11:18:22;5.08;;;2.52;;
22435;SDS011;11385;50.822;4.324;2023-02-28T11:23:20;4.47;;;2.58;;
22435;SDS011;11385;50.822;4.324;2023-02-28T11:25:49;3.17;;;2.27;;
22435;SDS011;11385;50.822;4.324;2023-02-28T11:28:26;4.95;;;2.33;;
22435;SDS011;11385;50.822;4.324;2023-02-28T11:31:04;3.72;;;2.30;;
22435;SDS011;11385;50.822;4.324;2023-02-28T11:33:53;5.85;;;2.40;;
22435;SDS011;11385;50.822;4.324;2023-02-28T11:36:23;4.35;;;1.95;;
22435;SDS011;11385;50.822;4.324;2023-02-28T11:38:53;7.05;;;2.37;;
22435;SDS011;11385;50.822;4.324;2023-02-28T11:41:31;3.93;;;2.40;;
22435;SDS011;11385;50.822;4.324;2023-02-28T11:44:18;4.50;;;2.65;;
22435;SDS011;11385;50.822;4.324;2023-02-28T11:47:09;3.62;;;2.47;;
22435;SDS011;11385;50.822;4.324;2023-02-28T11:49:40;4.72;;;2.47;;
22435;SDS011;11385;50.822;4.324;2023-02-28T11:52:27;5.15;;;2.50;;
22435;SDS011;11385;50.822;4.324;2023-02-28T11:55:03;4.08;;;2.65;;
22435;SDS011;11385;50.822;4.324;2023-02-28T12:00:31;5.90;;;2.62;;
22435;SDS011;11385;50.822;4.324;2023-02-28T12:03:08;8.13;;;2.62;;
22435;SDS011;11385;50.822;4.324;2023-02-28T12:05:39;5.58;;;2.42;;
22435;SDS011;11385;50.822;4.324;2023-02-28T12:11:12;7.15;;;2.50;;
22435;SDS011;11385;50.822;4.324;2023-02-28T12:13:46;4.75;;;2.27;;
22435;SDS011;11385;50.822;4.324;2023-02-28T12:18:49;5.25;;;2.45;;
22435;SDS011;11385;50.822;4.324;2023-02-28T12:21:22;5.28;;;2.65;;
22435;SDS011;11385;50.822;4.324;2023-02-28T12:26:25;8.33;;;2.90;;
22435;SDS011;11385;50.822;4.324;2023-02-28T12:28:58;6.65;;;2.50;;
22435;SDS011;11385;50.822;4.324;2023-02-28T12:31:29;18.23;;;3.60;;
22435;SDS011;11385;50.822;4.324;2023-02-28T12:34:01;3.90;;;2.40;;
22435;SDS011;11385;50.822;4.324;2023-02-28T12:36:31;3.15;;;2.05;;
22435;SDS011;11385;50.822;4.324;2023-02-28T12:39:03;3.62;;;2.10;;
22435;SDS011;11385;50.822;4.324;2023-02-28T12:44:15;3.58;;;2.33;;
22435;SDS011;11385;50.822;4.324;2023-02-28T12:46:47;4.33;;;2.08;;
22435;SDS011;11385;50.822;4.324;2023-02-28T12:49:19;5.50;;;2.35;;
22435;SDS011;11385;50.822;4.324;2023-02-28T12:51:50;3.65;;;2.30;;
22435;SDS011;11385;50.822;4.324;2023-02-28T12:54:25;8.25;;;2.37;;
22435;SDS011;11385;50.822;4.324;2023-02-28T12:57:09;3.75;;;2.20;;
22435;SDS011;11385;50.822;4.324;2023-02-28T12:59:46;3.30;;;2.17;;
22435;SDS011;11385;50.822;4.324;2023-02-28T13:02:24;7.33;;;2.45;;
22435;SDS011;11385;50.822;4.324;2023-02-28T13:06:13;5.22;;;2.42;;
22435;SDS011;11385;50.822;4.324;2023-02-28T13:10:45;3.95;;;2.45;;
22435;SDS011;11385;50.822;4.324;2023-02-28T13:13:19;3.37;;;2.33;;
22435;SDS011;11385;50.822;4.324;2023-02-28T13:18:30;8.95;;;2.70;;
22435;SDS011;11385;50.822;4.324;2023-02-28T13:20:58;4.85;;;2.52;;
22435;SDS011;11385;50.822;4.324;2023-02-28T13:23:38;4.80;;;2.62;;
22435;SDS011;11385;50.822;4.324;2023-02-28T13:26:09;3.98;;;2.47;;
22435;SDS011;11385;50.822;4.324;2023-02-28T13:31:32;10.25;;;2.85;;
22435;SDS011;11385;50.822;4.324;2023-02-28T13:34:04;3.42;;;2.22;;
22435;SDS011;11385;50.822;4.324;2023-02-28T13:36:33;4.25;;;2.30;;
22435;SDS011;11385;50.822;4.324;2023-02-28T13:39:00;3.80;;;2.35;;
22435;SDS011;11385;50.822;4.324;2023-02-28T13:49:41;5.53;;;2.00;;
22435;SDS011;11385;50.822;4.324;2023-02-28T13:52:16;3.42;;;2.40;;
22435;SDS011;11385;50.822;4.324;2023-02-28T13:57:59;3.87;;;2.67;;
22435;SDS011;11385;50.822;4.324;2023-02-28T14:00:37;6.10;;;2.67;;
22435;SDS011;11385;50.822;4.324;2023-02-28T14:03:31;6.47;;;2.10;;
22435;SDS011;11385;50.822;4.324;2023-02-28T14:08:36;4.53;;;2.15;;
22435;SDS011;11385;50.822;4.324;2023-02-28T14:11:06;5.40;;;2.27;;
22435;SDS011;11385;50.822;4.324;2023-02-28T14:13:38;4.05;;;2.33;;
22435;SDS011;11385;50.822;4.324;2023-02-28T14:16:09;4.08;;;2.40;;
22435;SDS011;11385;50.822;4.324;2023-02-28T14:18:41;4.97;;;2.45;;
22435;SDS011;11385;50.822;4.324;2023-02-28T14:21:12;4.12;;;2.40;;
22435;SDS011;11385;50.822;4.324;2023-02-28T14:25:07;5.03;;;2.30;;
22435;SDS011;11385;50.822;4.324;2023-02-28T14:27:12;4.55;;;2.20;;
22435;SDS011;11385;50.822;4.324;2023-02-28T14:29:53;4.10;;;2.55;;
22435;SDS011;11385;50.822;4.324;2023-02-28T14:37:46;6.53;;;2.92;;
22435;SDS011;11385;50.822;4.324;2023-02-28T14:40:15;4.40;;;2.22;;
22435;SDS011;11385;50.822;4.324;2023-02-28T14:42:49;7.50;;;2.30;;
22435;SDS011;11385;50.822;4.324;2023-02-28T14:45:25;8.07;;;2.23;;
22435;SDS011;11385;50.822;4.324;2023-02-28T14:47:55;5.15;;;2.70;;
22435;SDS011;11385;50.822;4.324;2023-02-28T14:50:27;5.97;;;2.37;;
22435;SDS011;11385;50.822;4.324;2023-02-28T14:52:56;4.67;;;2.25;;
22435;SDS011;11385;50.822;4.324;2023-02-28T14:55:26;10.80;;;3.67;;
22435;SDS011;11385;50.822;4.324;2023-02-28T14:57:57;6.40;;;2.72;;
22435;SDS011;11385;50.822;4.324;2023-02-28T15:00:33;4.47;;;2.25;;
22435;SDS011;11385;50.822;4.324;2023-02-28T15:03:17;6.97;;;2.80;;
22435;SDS011;11385;50.822;4.324;2023-02-28T15:05:51;6.17;;;2.80;;
22435;SDS011;11385;50.822;4.324;2023-02-28T15:08:21;5.95;;;2.77;;
22435;SDS011;11385;50.822;4.324;2023-02-28T15:10:54;3.92;;;2.37;;
22435;SDS011;11385;50.822;4.324;2023-02-28T15:13:26;8.25;;;2.70;;
22435;SDS011;11385;50.822;4.324;2023-02-28T15:15:56;4.50;;;2.65;;
22435;SDS011;11385;50.822;4.324;2023-02-28T15:18:57;11.18;;;4.30;;
22435;SDS011;11385;50.822;4.324;2023-02-28T15:21:17;6.17;;;3.30;;
22435;SDS011;11385;50.822;4.324;2023-02-28T15:26:51;4.67;;;3.00;;
22435;SDS011;11385;50.822;4.324;2023-02-28T15:29:21;5.10;;;2.62;;
22435;SDS011;11385;50.822;4.324;2023-02-28T15:31:54;6.55;;;3.05;;
22435;SDS011;11385;50.822;4.324;2023-02-28T15:37:06;9.58;;;3.40;;
22435;SDS011;11385;50.822;4.324;2023-02-28T15:39:41;6.58;;;3.50;;
22435;SDS011;11385;50.822;4.324;2023-02-28T15:42:10;5.20;;;3.50;;
22435;SDS011;11385;50.822;4.324;2023-02-28T15:44:38;4.37;;;3.02;;
22435;SDS011;11385;50.822;4.324;2023-02-28T15:47:06;5.35;;;3.77;;
22435;SDS011;11385;50.822;4.324;2023-02-28T15:49:39;5.47;;;3.33;;
22435;SDS011;11385;50.822;4.324;2023-02-28T15:52:28;5.30;;;3.60;;
22435;SDS011;11385;50.822;4.324;2023-02-28T15:54:57;6.65;;;2.90;;
22435;SDS011;11385;50.822;4.324;2023-02-28T15:57:25;5.22;;;2.90;;
22435;SDS011;11385;50.822;4.324;2023-02-28T15:59:56;4.60;;;2.70;;
22435;SDS011;11385;50.822;4.324;2023-02-28T16:05:02;5.75;;;3.10;;
22435;SDS011;11385;50.822;4.324;2023-02-28T16:07:30;3.90;;;2.65;;
22435;SDS011;11385;50.822;4.324;2023-02-28T16:09:58;6.28;;;2.98;;
22435;SDS011;11385;50.822;4.324;2023-02-28T16:12:27;5.47;;;3.12;;
22435;SDS011;11385;50.822;4.324;2023-02-28T16:14:57;7.87;;;2.90;;
22435;SDS011;11385;50.822;4.324;2023-02-28T16:17:28;7.28;;;3.50;;
22435;SDS011;11385;50.822;4.324;2023-02-28T16:19:57;5.72;;;2.95;;
22435;SDS011;11385;50.822;4.324;2023-02-28T16:22:24;5.28;;;3.22;;